Rancho Cucamonga, California
Current Conditions -  °F | °C
As of 11:53 PM on Monday 26 Jan 2015 (Local Time) from KONT Reporting Station
Haze Haze  
Wind Chill: 54°   Ceiling: 4700
Heat Index: 54°   Visibility: 5mi
Dew Point: 52°   Wind: 0mph
Humidity: 93%   Direction: NA
Pressure: 30.12"   Gusts: NA
Location:  34.1°N, 117.57°W
Report Text: KONT 270753Z 00000KT 5SM BR FEW008 BKN047 BKN090 12/11 A3012 RMK AO2 SLP193 T01220111 402560122
Loading
Personal Weather Stations






























Interactive Weather Map New forecast layout! Learn more

10-Day Weather Forecast

Advertisements
Track Severe Weather on mobile